sensor_id;sensor_type;location;lat;lon;timestamp;temperature;humidity
18147;DHT22;9199;48.832;9.182;2023-07-09T00:01:12;22.70;88.10
18147;DHT22;9199;48.832;9.182;2023-07-09T00:03:40;22.60;87.80
18147;DHT22;9199;48.832;9.182;2023-07-09T00:06:08;22.50;88.50
18147;DHT22;9199;48.832;9.182;2023-07-09T00:08:35;22.50;88.60
18147;DHT22;9199;48.832;9.182;2023-07-09T00:11:02;22.50;88.80
18147;DHT22;9199;48.832;9.182;2023-07-09T00:13:29;22.40;89.90
18147;DHT22;9199;48.832;9.182;2023-07-09T00:15:59;22.40;90.20
18147;DHT22;9199;48.832;9.182;2023-07-09T00:18:26;22.30;90.50
18147;DHT22;9199;48.832;9.182;2023-07-09T00:20:55;22.30;90.50
18147;DHT22;9199;48.832;9.182;2023-07-09T00:23:21;22.30;90.80
18147;DHT22;9199;48.832;9.182;2023-07-09T00:25:48;22.20;91.20
18147;DHT22;9199;48.832;9.182;2023-07-09T00:28:16;22.10;91.90
18147;DHT22;9199;48.832;9.182;2023-07-09T00:30:43;22.00;92.50
18147;DHT22;9199;48.832;9.182;2023-07-09T00:33:11;22.00;93.00
18147;DHT22;9199;48.832;9.182;2023-07-09T00:35:40;22.00;93.30
18147;DHT22;9199;48.832;9.182;2023-07-09T00:38:13;21.90;93.00
18147;DHT22;9199;48.832;9.182;2023-07-09T00:40:46;21.90;93.40
18147;DHT22;9199;48.832;9.182;2023-07-09T00:43:15;21.90;93.20
18147;DHT22;9199;48.832;9.182;2023-07-09T00:45:42;21.80;93.40
18147;DHT22;9199;48.832;9.182;2023-07-09T00:48:12;21.80;93.80
18147;DHT22;9199;48.832;9.182;2023-07-09T00:50:44;21.80;94.00
18147;DHT22;9199;48.832;9.182;2023-07-09T00:53:18;21.80;94.20
18147;DHT22;9199;48.832;9.182;2023-07-09T00:55:50;21.80;94.40
18147;DHT22;9199;48.832;9.182;2023-07-09T00:58:17;21.70;94.90
18147;DHT22;9199;48.832;9.182;2023-07-09T01:00:47;21.70;95.00
18147;DHT22;9199;48.832;9.182;2023-07-09T01:03:25;21.70;95.30
18147;DHT22;9199;48.832;9.182;2023-07-09T01:05:56;21.70;95.60
18147;DHT22;9199;48.832;9.182;2023-07-09T01:08:25;21.60;96.00
18147;DHT22;9199;48.832;9.182;2023-07-09T01:10:56;21.60;96.40
18147;DHT22;9199;48.832;9.182;2023-07-09T01:13:23;21.50;96.70
18147;DHT22;9199;48.832;9.182;2023-07-09T01:15:51;21.50;97.20
18147;DHT22;9199;48.832;9.182;2023-07-09T01:18:18;21.40;97.60
18147;DHT22;9199;48.832;9.182;2023-07-09T01:20:46;21.40;98.50
18147;DHT22;9199;48.832;9.182;2023-07-09T01:23:14;21.40;98.80
18147;DHT22;9199;48.832;9.182;2023-07-09T01:25:46;21.40;98.70
18147;DHT22;9199;48.832;9.182;2023-07-09T01:28:16;21.40;98.80
18147;DHT22;9199;48.832;9.182;2023-07-09T01:30:43;21.40;98.50
18147;DHT22;9199;48.832;9.182;2023-07-09T01:33:10;21.30;98.60
18147;DHT22;9199;48.832;9.182;2023-07-09T01:35:39;21.30;99.10
18147;DHT22;9199;48.832;9.182;2023-07-09T01:38:07;21.20;99.40
18147;DHT22;9199;48.832;9.182;2023-07-09T01:40:36;21.20;99.60
18147;DHT22;9199;48.832;9.182;2023-07-09T01:43:04;21.20;99.70
18147;DHT22;9199;48.832;9.182;2023-07-09T01:45:32;21.20;99.90
18147;DHT22;9199;48.832;9.182;2023-07-09T01:48:00;21.20;99.90
18147;DHT22;9199;48.832;9.182;2023-07-09T01:50:27;21.10;99.90
18147;DHT22;9199;48.832;9.182;2023-07-09T01:52:55;21.10;99.90
18147;DHT22;9199;48.832;9.182;2023-07-09T01:55:22;21.10;99.90
18147;DHT22;9199;48.832;9.182;2023-07-09T01:57:50;21.00;99.90
18147;DHT22;9199;48.832;9.182;2023-07-09T02:00:18;21.00;99.90
18147;DHT22;9199;48.832;9.182;2023-07-09T02:02:45;21.00;99.90
18147;DHT22;9199;48.832;9.182;2023-07-09T02:05:14;20.90;99.90
18147;DHT22;9199;48.832;9.182;2023-07-09T02:07:41;20.90;99.90
18147;DHT22;9199;48.832;9.182;2023-07-09T02:10:09;20.80;99.90
18147;DHT22;9199;48.832;9.182;2023-07-09T02:12:36;20.80;99.90
18147;DHT22;9199;48.832;9.182;2023-07-09T02:15:05;20.70;99.90
18147;DHT22;9199;48.832;9.182;2023-07-09T02:17:32;20.70;99.90
18147;DHT22;9199;48.832;9.182;2023-07-09T02:19:59;20.60;99.90
18147;DHT22;9199;48.832;9.182;2023-07-09T02:22:26;20.60;99.90
18147;DHT22;9199;48.832;9.182;2023-07-09T02:24:52;20.50;99.90
18147;DHT22;9199;48.832;9.182;2023-07-09T02:27:20;20.40;99.90
18147;DHT22;9199;48.832;9.182;2023-07-09T02:29:47;20.40;99.90
18147;DHT22;9199;48.832;9.182;2023-07-09T02:32:18;20.40;99.90
18147;DHT22;9199;48.832;9.182;2023-07-09T02:34:45;20.40;99.90
18147;DHT22;9199;48.832;9.182;2023-07-09T02:37:15;20.40;99.90
18147;DHT22;9199;48.832;9.182;2023-07-09T02:39:42;20.30;99.90
18147;DHT22;9199;48.832;9.182;2023-07-09T02:42:09;20.20;99.90
18147;DHT22;9199;48.832;9.182;2023-07-09T02:44:36;20.20;99.90
18147;DHT22;9199;48.832;9.182;2023-07-09T02:47:03;20.20;99.90
18147;DHT22;9199;48.832;9.182;2023-07-09T02:49:31;20.20;99.90
18147;DHT22;9199;48.832;9.182;2023-07-09T02:51:58;20.20;99.90
18147;DHT22;9199;48.832;9.182;2023-07-09T02:54:25;20.20;99.90
18147;DHT22;9199;48.832;9.182;2023-07-09T02:56:52;20.20;99.90
18147;DHT22;9199;48.832;9.182;2023-07-09T02:59:18;20.20;99.90
18147;DHT22;9199;48.832;9.182;2023-07-09T03:01:45;20.20;99.90
18147;DHT22;9199;48.832;9.182;2023-07-09T03:04:13;20.10;99.90
18147;DHT22;9199;48.832;9.182;2023-07-09T03:06:41;20.10;99.90
18147;DHT22;9199;48.832;9.182;2023-07-09T03:09:09;20.00;99.90
18147;DHT22;9199;48.832;9.182;2023-07-09T03:11:36;20.00;99.90
18147;DHT22;9199;48.832;9.182;2023-07-09T03:14:03;20.00;99.90
18147;DHT22;9199;48.832;9.182;2023-07-09T03:16:31;20.00;99.90
18147;DHT22;9199;48.832;9.182;2023-07-09T03:18:59;20.00;99.90
18147;DHT22;9199;48.832;9.182;2023-07-09T03:21:27;20.00;99.90
18147;DHT22;9199;48.832;9.182;2023-07-09T03:23:56;19.90;99.90
18147;DHT22;9199;48.832;9.182;2023-07-09T03:26:23;19.80;99.90
18147;DHT22;9199;48.832;9.182;2023-07-09T03:28:50;19.80;99.90
18147;DHT22;9199;48.832;9.182;2023-07-09T03:31:17;19.70;99.90
18147;DHT22;9199;48.832;9.182;2023-07-09T03:33:46;19.70;99.90
18147;DHT22;9199;48.832;9.182;2023-07-09T03:36:13;19.70;99.90
18147;DHT22;9199;48.832;9.182;2023-07-09T03:38:40;19.70;99.90
18147;DHT22;9199;48.832;9.182;2023-07-09T03:41:08;19.70;99.90
18147;DHT22;9199;48.832;9.182;2023-07-09T03:43:34;19.70;99.90
18147;DHT22;9199;48.832;9.182;2023-07-09T03:46:01;19.70;99.90
18147;DHT22;9199;48.832;9.182;2023-07-09T03:48:28;19.70;99.90
18147;DHT22;9199;48.832;9.182;2023-07-09T03:50:55;19.70;99.90
18147;DHT22;9199;48.832;9.182;2023-07-09T03:53:22;19.70;99.90
18147;DHT22;9199;48.832;9.182;2023-07-09T03:55:52;19.60;99.90
18147;DHT22;9199;48.832;9.182;2023-07-09T03:58:21;19.60;99.90
18147;DHT22;9199;48.832;9.182;2023-07-09T04:00:48;19.60;99.90
18147;DHT22;9199;48.832;9.182;2023-07-09T04:03:15;19.70;99.90
18147;DHT22;9199;48.832;9.182;2023-07-09T04:05:42;19.70;99.90
18147;DHT22;9199;48.832;9.182;2023-07-09T04:08:08;19.70;99.90
18147;DHT22;9199;48.832;9.182;2023-07-09T04:10:35;19.70;99.90
18147;DHT22;9199;48.832;9.182;2023-07-09T04:13:02;19.80;99.90
18147;DHT22;9199;48.832;9.182;2023-07-09T04:15:30;19.80;99.90
18147;DHT22;9199;48.832;9.182;2023-07-09T04:17:57;19.80;99.90
18147;DHT22;9199;48.832;9.182;2023-07-09T04:20:23;19.90;99.90
18147;DHT22;9199;48.832;9.182;2023-07-09T04:22:50;19.90;99.90
18147;DHT22;9199;48.832;9.182;2023-07-09T04:25:17;19.90;99.90
18147;DHT22;9199;48.832;9.182;2023-07-09T04:27:44;20.00;99.90
18147;DHT22;9199;48.832;9.182;2023-07-09T04:30:13;20.00;99.90
18147;DHT22;9199;48.832;9.182;2023-07-09T04:32:42;20.10;99.90
18147;DHT22;9199;48.832;9.182;2023-07-09T04:35:10;20.30;99.90
18147;DHT22;9199;48.832;9.182;2023-07-09T04:37:38;20.50;99.90
18147;DHT22;9199;48.832;9.182;2023-07-09T04:40:06;20.70;99.90
18147;DHT22;9199;48.832;9.182;2023-07-09T04:42:36;20.90;99.90
18147;DHT22;9199;48.832;9.182;2023-07-09T04:45:03;21.10;99.90
18147;DHT22;9199;48.832;9.182;2023-07-09T04:47:30;21.20;99.90
18147;DHT22;9199;48.832;9.182;2023-07-09T04:49:58;21.40;99.90
18147;DHT22;9199;48.832;9.182;2023-07-09T04:52:25;21.50;99.90
18147;DHT22;9199;48.832;9.182;2023-07-09T04:54:51;21.60;99.90
18147;DHT22;9199;48.832;9.182;2023-07-09T04:57:18;21.70;99.90
18147;DHT22;9199;48.832;9.182;2023-07-09T04:59:45;21.80;99.90
18147;DHT22;9199;48.832;9.182;2023-07-09T05:02:11;21.90;99.90
18147;DHT22;9199;48.832;9.182;2023-07-09T05:04:38;22.00;99.90
18147;DHT22;9199;48.832;9.182;2023-07-09T05:07:06;22.10;99.90
18147;DHT22;9199;48.832;9.182;2023-07-09T05:09:33;22.10;99.90
18147;DHT22;9199;48.832;9.182;2023-07-09T05:12:00;22.20;99.90
18147;DHT22;9199;48.832;9.182;2023-07-09T05:14:27;22.30;99.90
18147;DHT22;9199;48.832;9.182;2023-07-09T05:16:54;22.40;99.90
18147;DHT22;9199;48.832;9.182;2023-07-09T05:19:21;22.60;99.90
18147;DHT22;9199;48.832;9.182;2023-07-09T05:21:48;22.70;99.90
18147;DHT22;9199;48.832;9.182;2023-07-09T05:24:16;22.80;99.90
18147;DHT22;9199;48.832;9.182;2023-07-09T05:26:42;22.80;99.90
18147;DHT22;9199;48.832;9.182;2023-07-09T05:29:09;22.90;99.90
18147;DHT22;9199;48.832;9.182;2023-07-09T05:31:36;23.00;99.90
18147;DHT22;9199;48.832;9.182;2023-07-09T05:34:03;23.00;99.90
18147;DHT22;9199;48.832;9.182;2023-07-09T05:36:29;23.10;99.90
18147;DHT22;9199;48.832;9.182;2023-07-09T05:38:56;23.20;99.90
18147;DHT22;9199;48.832;9.182;2023-07-09T05:41:24;23.20;99.90
18147;DHT22;9199;48.832;9.182;2023-07-09T05:43:52;23.30;99.90
18147;DHT22;9199;48.832;9.182;2023-07-09T05:46:22;23.40;99.90
18147;DHT22;9199;48.832;9.182;2023-07-09T05:48:49;23.50;99.90
18147;DHT22;9199;48.832;9.182;2023-07-09T05:51:16;23.50;99.90
18147;DHT22;9199;48.832;9.182;2023-07-09T05:53:42;23.60;99.90
18147;DHT22;9199;48.832;9.182;2023-07-09T05:56:09;23.70;99.90
18147;DHT22;9199;48.832;9.182;2023-07-09T05:58:37;23.80;99.90
18147;DHT22;9199;48.832;9.182;2023-07-09T06:01:04;23.90;99.90
18147;DHT22;9199;48.832;9.182;2023-07-09T06:03:31;24.10;99.90
18147;DHT22;9199;48.832;9.182;2023-07-09T06:05:59;24.10;99.90
18147;DHT22;9199;48.832;9.182;2023-07-09T06:08:26;24.20;99.90
18147;DHT22;9199;48.832;9.182;2023-07-09T06:10:54;24.30;99.90
18147;DHT22;9199;48.832;9.182;2023-07-09T06:13:21;24.40;99.60
18147;DHT22;9199;48.832;9.182;2023-07-09T06:15:51;24.60;99.50
18147;DHT22;9199;48.832;9.182;2023-07-09T06:18:18;24.80;99.40
18147;DHT22;9199;48.832;9.182;2023-07-09T06:20:49;25.00;98.70
18147;DHT22;9199;48.832;9.182;2023-07-09T06:23:16;25.40;98.00
18147;DHT22;9199;48.832;9.182;2023-07-09T06:25:44;25.60;97.30
18147;DHT22;9199;48.832;9.182;2023-07-09T06:28:13;25.90;97.40
18147;DHT22;9199;48.832;9.182;2023-07-09T06:30:40;26.20;96.40
18147;DHT22;9199;48.832;9.182;2023-07-09T06:33:09;26.50;95.80
18147;DHT22;9199;48.832;9.182;2023-07-09T06:35:36;26.80;94.60
18147;DHT22;9199;48.832;9.182;2023-07-09T06:38:02;27.00;94.10
18147;DHT22;9199;48.832;9.182;2023-07-09T06:40:29;27.30;93.60
18147;DHT22;9199;48.832;9.182;2023-07-09T06:42:56;27.50;92.90
18147;DHT22;9199;48.832;9.182;2023-07-09T06:45:23;27.80;92.50
18147;DHT22;9199;48.832;9.182;2023-07-09T06:47:50;27.90;92.00
18147;DHT22;9199;48.832;9.182;2023-07-09T06:50:18;28.20;91.00
18147;DHT22;9199;48.832;9.182;2023-07-09T06:52:46;28.40;90.90
18147;DHT22;9199;48.832;9.182;2023-07-09T06:55:13;28.40;90.40
18147;DHT22;9199;48.832;9.182;2023-07-09T06:57:39;28.40;90.10
18147;DHT22;9199;48.832;9.182;2023-07-09T07:00:07;28.40;90.20
18147;DHT22;9199;48.832;9.182;2023-07-09T07:02:34;28.60;90.20
18147;DHT22;9199;48.832;9.182;2023-07-09T07:05:01;28.70;90.10
18147;DHT22;9199;48.832;9.182;2023-07-09T07:07:29;28.80;88.10
18147;DHT22;9199;48.832;9.182;2023-07-09T07:09:55;28.80;87.00
18147;DHT22;9199;48.832;9.182;2023-07-09T07:12:24;28.70;87.90
18147;DHT22;9199;48.832;9.182;2023-07-09T07:14:52;28.80;87.50
18147;DHT22;9199;48.832;9.182;2023-07-09T07:17:18;28.90;87.10
18147;DHT22;9199;48.832;9.182;2023-07-09T07:19:45;28.90;88.20
18147;DHT22;9199;48.832;9.182;2023-07-09T07:22:12;29.00;87.70
18147;DHT22;9199;48.832;9.182;2023-07-09T07:24:41;29.10;88.10
18147;DHT22;9199;48.832;9.182;2023-07-09T07:27:08;29.10;87.00
18147;DHT22;9199;48.832;9.182;2023-07-09T07:29:35;29.00;86.90
18147;DHT22;9199;48.832;9.182;2023-07-09T07:32:02;29.10;87.80
18147;DHT22;9199;48.832;9.182;2023-07-09T07:34:29;29.20;86.70
18147;DHT22;9199;48.832;9.182;2023-07-09T07:36:55;29.30;87.50
18147;DHT22;9199;48.832;9.182;2023-07-09T07:39:22;29.40;86.50
18147;DHT22;9199;48.832;9.182;2023-07-09T07:41:50;29.70;85.00
18147;DHT22;9199;48.832;9.182;2023-07-09T07:44:17;29.90;84.60
18147;DHT22;9199;48.832;9.182;2023-07-09T07:46:44;30.10;84.30
18147;DHT22;9199;48.832;9.182;2023-07-09T07:49:11;30.30;83.80
18147;DHT22;9199;48.832;9.182;2023-07-09T07:51:38;30.30;82.60
18147;DHT22;9199;48.832;9.182;2023-07-09T07:54:05;30.50;82.30
18147;DHT22;9199;48.832;9.182;2023-07-09T07:56:34;30.70;81.30
18147;DHT22;9199;48.832;9.182;2023-07-09T07:59:02;30.70;80.00
18147;DHT22;9199;48.832;9.182;2023-07-09T08:01:29;30.80;79.50
18147;DHT22;9199;48.832;9.182;2023-07-09T08:03:56;31.00;80.90
18147;DHT22;9199;48.832;9.182;2023-07-09T08:06:23;31.20;77.50
18147;DHT22;9199;48.832;9.182;2023-07-09T08:08:49;31.20;76.30
18147;DHT22;9199;48.832;9.182;2023-07-09T08:11:17;31.30;75.10
18147;DHT22;9199;48.832;9.182;2023-07-09T08:13:43;31.50;74.80
18147;DHT22;9199;48.832;9.182;2023-07-09T08:16:12;31.60;76.10
18147;DHT22;9199;48.832;9.182;2023-07-09T08:18:39;31.70;74.80
18147;DHT22;9199;48.832;9.182;2023-07-09T08:21:05;31.70;74.50
18147;DHT22;9199;48.832;9.182;2023-07-09T08:23:32;31.80;71.80
18147;DHT22;9199;48.832;9.182;2023-07-09T08:26:01;32.00;72.60
18147;DHT22;9199;48.832;9.182;2023-07-09T08:28:28;32.20;71.50
18147;DHT22;9199;48.832;9.182;2023-07-09T08:30:56;32.30;70.50
18147;DHT22;9199;48.832;9.182;2023-07-09T08:33:24;32.40;71.30
18147;DHT22;9199;48.832;9.182;2023-07-09T08:35:52;32.50;70.70
18147;DHT22;9199;48.832;9.182;2023-07-09T08:38:20;32.60;68.80
18147;DHT22;9199;48.832;9.182;2023-07-09T08:40:54;32.80;69.20
18147;DHT22;9199;48.832;9.182;2023-07-09T08:43:34;33.00;69.30
18147;DHT22;9199;48.832;9.182;2023-07-09T08:46:06;33.30;66.40
18147;DHT22;9199;48.832;9.182;2023-07-09T08:48:37;33.60;63.30
18147;DHT22;9199;48.832;9.182;2023-07-09T08:51:10;33.70;63.10
18147;DHT22;9199;48.832;9.182;2023-07-09T08:53:42;34.00;63.00
18147;DHT22;9199;48.832;9.182;2023-07-09T08:56:11;34.20;63.00
18147;DHT22;9199;48.832;9.182;2023-07-09T08:58:40;34.30;61.20
18147;DHT22;9199;48.832;9.182;2023-07-09T09:01:18;34.20;59.90
18147;DHT22;9199;48.832;9.182;2023-07-09T09:03:48;34.10;60.40
18147;DHT22;9199;48.832;9.182;2023-07-09T09:06:18;34.40;60.20
18147;DHT22;9199;48.832;9.182;2023-07-09T09:08:58;34.80;58.80
18147;DHT22;9199;48.832;9.182;2023-07-09T09:11:31;35.00;58.60
18147;DHT22;9199;48.832;9.182;2023-07-09T09:14:03;35.30;55.60
18147;DHT22;9199;48.832;9.182;2023-07-09T09:16:33;35.40;55.70
18147;DHT22;9199;48.832;9.182;2023-07-09T09:19:11;35.40;55.30
18147;DHT22;9199;48.832;9.182;2023-07-09T09:21:40;35.60;54.00
18147;DHT22;9199;48.832;9.182;2023-07-09T09:24:14;35.70;53.70
18147;DHT22;9199;48.832;9.182;2023-07-09T09:26:43;35.90;51.90
18147;DHT22;9199;48.832;9.182;2023-07-09T09:29:12;36.20;51.80
18147;DHT22;9199;48.832;9.182;2023-07-09T09:31:41;35.90;51.00
18147;DHT22;9199;48.832;9.182;2023-07-09T09:34:20;35.60;51.70
18147;DHT22;9199;48.832;9.182;2023-07-09T09:36:48;35.90;51.50
18147;DHT22;9199;48.832;9.182;2023-07-09T09:39:15;36.30;50.60
18147;DHT22;9199;48.832;9.182;2023-07-09T09:41:43;36.40;50.50
18147;DHT22;9199;48.832;9.182;2023-07-09T09:44:18;36.40;50.80
18147;DHT22;9199;48.832;9.182;2023-07-09T09:46:45;36.40;50.60
18147;DHT22;9199;48.832;9.182;2023-07-09T09:49:12;36.60;50.60
18147;DHT22;9199;48.832;9.182;2023-07-09T09:51:44;36.70;49.30
18147;DHT22;9199;48.832;9.182;2023-07-09T09:54:16;37.00;50.00
18147;DHT22;9199;48.832;9.182;2023-07-09T09:56:44;37.00;48.30
18147;DHT22;9199;48.832;9.182;2023-07-09T09:59:18;37.20;48.70
18147;DHT22;9199;48.832;9.182;2023-07-09T10:01:46;37.80;47.80
18147;DHT22;9199;48.832;9.182;2023-07-09T10:04:18;37.70;46.90
18147;DHT22;9199;48.832;9.182;2023-07-09T10:06:50;38.20;46.00
18147;DHT22;9199;48.832;9.182;2023-07-09T10:09:26;38.50;45.40
18147;DHT22;9199;48.832;9.182;2023-07-09T10:11:58;38.90;46.20
18147;DHT22;9199;48.832;9.182;2023-07-09T10:14:34;39.10;45.80
18147;DHT22;9199;48.832;9.182;2023-07-09T10:17:09;39.50;43.70
18147;DHT22;9199;48.832;9.182;2023-07-09T10:19:47;40.00;39.70
18147;DHT22;9199;48.832;9.182;2023-07-09T10:22:28;40.10;38.90
18147;DHT22;9199;48.832;9.182;2023-07-09T10:25:03;40.50;38.90
18147;DHT22;9199;48.832;9.182;2023-07-09T10:27:41;40.60;38.50
18147;DHT22;9199;48.832;9.182;2023-07-09T10:30:30;41.10;37.20
18147;DHT22;9199;48.832;9.182;2023-07-09T10:33:07;41.20;37.60
18147;DHT22;9199;48.832;9.182;2023-07-09T10:35:38;40.90;37.10
18147;DHT22;9199;48.832;9.182;2023-07-09T10:38:29;41.30;34.00
18147;DHT22;9199;48.832;9.182;2023-07-09T10:41:00;41.70;32.50
18147;DHT22;9199;48.832;9.182;2023-07-09T10:43:37;42.00;32.60
18147;DHT22;9199;48.832;9.182;2023-07-09T10:46:09;42.00;31.70
18147;DHT22;9199;48.832;9.182;2023-07-09T10:48:40;41.90;32.00
18147;DHT22;9199;48.832;9.182;2023-07-09T10:51:16;42.00;31.90
18147;DHT22;9199;48.832;9.182;2023-07-09T10:53:46;42.40;31.50
18147;DHT22;9199;48.832;9.182;2023-07-09T10:56:17;42.00;32.60
18147;DHT22;9199;48.832;9.182;2023-07-09T10:58:51;41.50;31.70
18147;DHT22;9199;48.832;9.182;2023-07-09T11:01:28;40.90;31.90
18147;DHT22;9199;48.832;9.182;2023-07-09T11:04:00;40.90;31.90
18147;DHT22;9199;48.832;9.182;2023-07-09T11:06:31;41.20;31.30
18147;DHT22;9199;48.832;9.182;2023-07-09T11:09:02;41.40;30.80
18147;DHT22;9199;48.832;9.182;2023-07-09T11:11:34;41.30;30.80
18147;DHT22;9199;48.832;9.182;2023-07-09T11:14:05;41.30;31.30
18147;DHT22;9199;48.832;9.182;2023-07-09T11:16:38;41.30;31.60
18147;DHT22;9199;48.832;9.182;2023-07-09T11:19:06;41.40;31.70
18147;DHT22;9199;48.832;9.182;2023-07-09T11:21:45;42.00;30.00
18147;DHT22;9199;48.832;9.182;2023-07-09T11:24:30;42.60;28.80
18147;DHT22;9199;48.832;9.182;2023-07-09T11:26:57;42.90;28.80
18147;DHT22;9199;48.832;9.182;2023-07-09T11:29:26;43.20;28.80
18147;DHT22;9199;48.832;9.182;2023-07-09T11:31:53;42.90;29.00
18147;DHT22;9199;48.832;9.182;2023-07-09T11:34:27;42.80;27.90
18147;DHT22;9199;48.832;9.182;2023-07-09T11:36:57;42.70;27.80
18147;DHT22;9199;48.832;9.182;2023-07-09T11:39:30;42.40;27.90
18147;DHT22;9199;48.832;9.182;2023-07-09T11:41:58;42.20;28.20
18147;DHT22;9199;48.832;9.182;2023-07-09T11:44:26;42.00;27.40
18147;DHT22;9199;48.832;9.182;2023-07-09T11:47:03;41.60;28.80
18147;DHT22;9199;48.832;9.182;2023-07-09T11:49:44;41.90;28.20
18147;DHT22;9199;48.832;9.182;2023-07-09T11:52:13;42.90;27.60
18147;DHT22;9199;48.832;9.182;2023-07-09T11:54:42;43.00;27.20
18147;DHT22;9199;48.832;9.182;2023-07-09T11:57:12;43.40;27.30
18147;DHT22;9199;48.832;9.182;2023-07-09T11:59:41;44.20;26.00
18147;DHT22;9199;48.832;9.182;2023-07-09T12:02:15;43.80;26.30
18147;DHT22;9199;48.832;9.182;2023-07-09T12:04:42;43.40;26.80
18147;DHT22;9199;48.832;9.182;2023-07-09T12:07:12;43.80;26.00
18147;DHT22;9199;48.832;9.182;2023-07-09T12:09:46;44.10;25.50
18147;DHT22;9199;48.832;9.182;2023-07-09T12:12:19;44.30;25.60
18147;DHT22;9199;48.832;9.182;2023-07-09T12:14:46;44.40;25.40
18147;DHT22;9199;48.832;9.182;2023-07-09T12:17:13;44.80;25.80
18147;DHT22;9199;48.832;9.182;2023-07-09T12:19:40;45.10;23.80
18147;DHT22;9199;48.832;9.182;2023-07-09T12:22:10;44.70;23.60
18147;DHT22;9199;48.832;9.182;2023-07-09T12:24:42;44.50;24.20
18147;DHT22;9199;48.832;9.182;2023-07-09T12:27:21;44.80;24.00
18147;DHT22;9199;48.832;9.182;2023-07-09T12:29:51;45.10;24.00
18147;DHT22;9199;48.832;9.182;2023-07-09T12:32:19;45.40;24.00
18147;DHT22;9199;48.832;9.182;2023-07-09T12:34:50;45.60;23.40
18147;DHT22;9199;48.832;9.182;2023-07-09T12:37:19;45.80;23.30
18147;DHT22;9199;48.832;9.182;2023-07-09T12:39:49;45.50;24.20
18147;DHT22;9199;48.832;9.182;2023-07-09T12:42:19;45.40;24.30
18147;DHT22;9199;48.832;9.182;2023-07-09T12:44:47;45.70;23.80
18147;DHT22;9199;48.832;9.182;2023-07-09T12:47:16;45.90;24.50
18147;DHT22;9199;48.832;9.182;2023-07-09T12:49:44;45.80;24.00
18147;DHT22;9199;48.832;9.182;2023-07-09T12:52:15;46.00;23.90
18147;DHT22;9199;48.832;9.182;2023-07-09T12:54:52;46.20;23.90
18147;DHT22;9199;48.832;9.182;2023-07-09T12:57:23;46.70;23.60
18147;DHT22;9199;48.832;9.182;2023-07-09T12:59:50;46.30;23.30
18147;DHT22;9199;48.832;9.182;2023-07-09T13:02:18;46.20;23.50
18147;DHT22;9199;48.832;9.182;2023-07-09T13:04:46;46.40;23.40
18147;DHT22;9199;48.832;9.182;2023-07-09T13:07:29;45.90;23.50
18147;DHT22;9199;48.832;9.182;2023-07-09T13:09:57;45.20;23.70
18147;DHT22;9199;48.832;9.182;2023-07-09T13:12:32;44.80;23.60
18147;DHT22;9199;48.832;9.182;2023-07-09T13:14:59;44.60;23.60
18147;DHT22;9199;48.832;9.182;2023-07-09T13:17:29;44.60;23.70
18147;DHT22;9199;48.832;9.182;2023-07-09T13:19:56;44.80;23.90
18147;DHT22;9199;48.832;9.182;2023-07-09T13:22:23;45.90;21.50
18147;DHT22;9199;48.832;9.182;2023-07-09T13:24:50;46.40;21.20
18147;DHT22;9199;48.832;9.182;2023-07-09T13:27:17;46.00;21.10
18147;DHT22;9199;48.832;9.182;2023-07-09T13:29:45;45.10;22.30
18147;DHT22;9199;48.832;9.182;2023-07-09T13:32:14;45.20;21.70
18147;DHT22;9199;48.832;9.182;2023-07-09T13:34:42;46.00;21.80
18147;DHT22;9199;48.832;9.182;2023-07-09T13:37:12;46.40;21.50
18147;DHT22;9199;48.832;9.182;2023-07-09T13:39:39;46.80;21.40
18147;DHT22;9199;48.832;9.182;2023-07-09T13:42:11;46.90;22.00
18147;DHT22;9199;48.832;9.182;2023-07-09T13:44:38;46.90;21.80
18147;DHT22;9199;48.832;9.182;2023-07-09T13:47:11;46.90;21.70
18147;DHT22;9199;48.832;9.182;2023-07-09T13:49:40;47.00;21.70
18147;DHT22;9199;48.832;9.182;2023-07-09T13:52:13;47.20;21.80
18147;DHT22;9199;48.832;9.182;2023-07-09T13:54:40;46.70;21.80
18147;DHT22;9199;48.832;9.182;2023-07-09T13:57:12;46.70;22.60
18147;DHT22;9199;48.832;9.182;2023-07-09T13:59:39;46.60;22.40
18147;DHT22;9199;48.832;9.182;2023-07-09T14:02:21;46.70;21.90
18147;DHT22;9199;48.832;9.182;2023-07-09T14:04:49;46.50;22.20
18147;DHT22;9199;48.832;9.182;2023-07-09T14:07:25;45.80;22.40
18147;DHT22;9199;48.832;9.182;2023-07-09T14:09:52;45.50;22.80
18147;DHT22;9199;48.832;9.182;2023-07-09T14:12:19;45.80;23.20
18147;DHT22;9199;48.832;9.182;2023-07-09T14:14:46;46.40;21.50
18147;DHT22;9199;48.832;9.182;2023-07-09T14:17:14;46.30;22.20
18147;DHT22;9199;48.832;9.182;2023-07-09T14:19:41;46.00;22.30
18147;DHT22;9199;48.832;9.182;2023-07-09T14:22:24;45.80;21.80
18147;DHT22;9199;48.832;9.182;2023-07-09T14:24:52;45.40;22.00
18147;DHT22;9199;48.832;9.182;2023-07-09T14:27:19;45.10;22.20
18147;DHT22;9199;48.832;9.182;2023-07-09T14:29:46;44.90;22.00
18147;DHT22;9199;48.832;9.182;2023-07-09T14:32:30;43.90;23.50
18147;DHT22;9199;48.832;9.182;2023-07-09T14:34:58;42.70;24.30
18147;DHT22;9199;48.832;9.182;2023-07-09T14:37:25;42.40;24.40
18147;DHT22;9199;48.832;9.182;2023-07-09T14:39:52;42.30;24.90
18147;DHT22;9199;48.832;9.182;2023-07-09T14:42:19;43.10;24.60
18147;DHT22;9199;48.832;9.182;2023-07-09T14:44:47;43.90;24.20
18147;DHT22;9199;48.832;9.182;2023-07-09T14:47:16;44.80;23.40
18147;DHT22;9199;48.832;9.182;2023-07-09T14:49:45;45.30;22.70
18147;DHT22;9199;48.832;9.182;2023-07-09T14:52:13;44.90;23.40
18147;DHT22;9199;48.832;9.182;2023-07-09T14:54:40;44.90;22.90
18147;DHT22;9199;48.832;9.182;2023-07-09T14:57:13;45.00;23.00
18147;DHT22;9199;48.832;9.182;2023-07-09T14:59:43;44.70;23.20
18147;DHT22;9199;48.832;9.182;2023-07-09T15:02:24;44.40;23.90
18147;DHT22;9199;48.832;9.182;2023-07-09T15:04:58;43.90;24.30
18147;DHT22;9199;48.832;9.182;2023-07-09T15:07:24;43.60;24.10
18147;DHT22;9199;48.832;9.182;2023-07-09T15:09:55;43.90;24.10
18147;DHT22;9199;48.832;9.182;2023-07-09T15:12:26;44.00;24.60
18147;DHT22;9199;48.832;9.182;2023-07-09T15:15:00;43.90;24.30
18147;DHT22;9199;48.832;9.182;2023-07-09T15:17:27;43.60;24.20
18147;DHT22;9199;48.832;9.182;2023-07-09T15:19:54;43.20;24.40
18147;DHT22;9199;48.832;9.182;2023-07-09T15:22:29;42.60;25.10
18147;DHT22;9199;48.832;9.182;2023-07-09T15:24:57;42.10;25.30
18147;DHT22;9199;48.832;9.182;2023-07-09T15:27:23;41.50;25.90
18147;DHT22;9199;48.832;9.182;2023-07-09T15:29:50;40.80;26.00
18147;DHT22;9199;48.832;9.182;2023-07-09T15:32:17;40.50;26.10
18147;DHT22;9199;48.832;9.182;2023-07-09T15:34:44;40.00;26.40
18147;DHT22;9199;48.832;9.182;2023-07-09T15:37:20;39.70;26.70
18147;DHT22;9199;48.832;9.182;2023-07-09T15:39:48;39.30;26.90
18147;DHT22;9199;48.832;9.182;2023-07-09T15:42:15;38.90;27.30
18147;DHT22;9199;48.832;9.182;2023-07-09T15:44:41;38.60;27.50
18147;DHT22;9199;48.832;9.182;2023-07-09T15:47:16;38.60;27.90
18147;DHT22;9199;48.832;9.182;2023-07-09T15:49:44;38.70;27.50
18147;DHT22;9199;48.832;9.182;2023-07-09T15:52:11;38.70;28.00
18147;DHT22;9199;48.832;9.182;2023-07-09T15:54:37;38.60;27.30
18147;DHT22;9199;48.832;9.182;2023-07-09T15:57:07;38.60;27.20